sensor_id;sensor_type;location;lat;lon;timestamp;temperature;humidity
70801;DHT22;59616;52.170;5.386;2022-07-17T00:01:13;15.70;66.00
70801;DHT22;59616;52.170;5.386;2022-07-17T00:03:41;15.60;66.10
70801;DHT22;59616;52.170;5.386;2022-07-17T00:06:08;15.60;66.20
70801;DHT22;59616;52.170;5.386;2022-07-17T00:08:35;15.60;66.30
70801;DHT22;59616;52.170;5.386;2022-07-17T00:11:01;15.60;66.40
70801;DHT22;59616;52.170;5.386;2022-07-17T00:13:29;15.50;66.60
70801;DHT22;59616;52.170;5.386;2022-07-17T00:15:56;15.50;66.80
70801;DHT22;59616;52.170;5.386;2022-07-17T00:18:22;15.50;66.90
70801;DHT22;59616;52.170;5.386;2022-07-17T00:20:49;15.40;66.90
70801;DHT22;59616;52.170;5.386;2022-07-17T00:23:16;15.40;67.00
70801;DHT22;59616;52.170;5.386;2022-07-17T00:25:44;15.40;67.10
70801;DHT22;59616;52.170;5.386;2022-07-17T00:28:11;15.30;67.10
70801;DHT22;59616;52.170;5.386;2022-07-17T00:30:38;15.30;67.20
70801;DHT22;59616;52.170;5.386;2022-07-17T00:33:05;15.30;67.40
70801;DHT22;59616;52.170;5.386;2022-07-17T00:35:32;15.30;67.40
70801;DHT22;59616;52.170;5.386;2022-07-17T00:37:58;15.30;67.50
70801;DHT22;59616;52.170;5.386;2022-07-17T00:40:25;15.30;67.60
70801;DHT22;59616;52.170;5.386;2022-07-17T00:42:52;15.30;67.60
70801;DHT22;59616;52.170;5.386;2022-07-17T00:45:20;15.30;67.60
70801;DHT22;59616;52.170;5.386;2022-07-17T00:48:10;15.30;67.60
70801;DHT22;59616;52.170;5.386;2022-07-17T00:50:40;15.30;67.60
70801;DHT22;59616;52.170;5.386;2022-07-17T00:53:08;15.20;67.70
70801;DHT22;59616;52.170;5.386;2022-07-17T00:55:35;15.20;67.80
70801;DHT22;59616;52.170;5.386;2022-07-17T00:58:13;15.20;67.80
70801;DHT22;59616;52.170;5.386;2022-07-17T01:00:43;15.10;67.90
70801;DHT22;59616;52.170;5.386;2022-07-17T01:03:10;15.00;68.00
70801;DHT22;59616;52.170;5.386;2022-07-17T01:05:37;15.00;68.10
70801;DHT22;59616;52.170;5.386;2022-07-17T01:08:04;15.00;68.20
70801;DHT22;59616;52.170;5.386;2022-07-17T01:10:30;15.00;68.20
70801;DHT22;59616;52.170;5.386;2022-07-17T01:12:57;14.90;68.30
70801;DHT22;59616;52.170;5.386;2022-07-17T01:15:24;14.90;68.40
70801;DHT22;59616;52.170;5.386;2022-07-17T01:17:51;15.00;68.60
70801;DHT22;59616;52.170;5.386;2022-07-17T01:20:18;14.90;68.60
70801;DHT22;59616;52.170;5.386;2022-07-17T01:22:48;14.90;68.60
70801;DHT22;59616;52.170;5.386;2022-07-17T01:25:19;14.90;68.80
70801;DHT22;59616;52.170;5.386;2022-07-17T01:27:46;14.90;68.80
70801;DHT22;59616;52.170;5.386;2022-07-17T01:30:12;14.80;68.80
70801;DHT22;59616;52.170;5.386;2022-07-17T01:32:40;14.80;68.90
70801;DHT22;59616;52.170;5.386;2022-07-17T01:35:09;14.70;69.00
70801;DHT22;59616;52.170;5.386;2022-07-17T01:37:38;14.70;69.10
70801;DHT22;59616;52.170;5.386;2022-07-17T01:40:06;14.70;69.20
70801;DHT22;59616;52.170;5.386;2022-07-17T01:42:33;14.70;69.20
70801;DHT22;59616;52.170;5.386;2022-07-17T01:45:01;14.70;69.10
70801;DHT22;59616;52.170;5.386;2022-07-17T01:47:27;14.70;69.20
70801;DHT22;59616;52.170;5.386;2022-07-17T01:49:56;14.70;69.10
70801;DHT22;59616;52.170;5.386;2022-07-17T01:52:25;14.60;69.10
70801;DHT22;59616;52.170;5.386;2022-07-17T01:54:53;14.60;69.20
70801;DHT22;59616;52.170;5.386;2022-07-17T01:57:20;14.50;69.40
70801;DHT22;59616;52.170;5.386;2022-07-17T01:59:47;14.40;69.40
70801;DHT22;59616;52.170;5.386;2022-07-17T02:02:15;14.40;69.60
70801;DHT22;59616;52.170;5.386;2022-07-17T02:04:44;14.40;69.60
70801;DHT22;59616;52.170;5.386;2022-07-17T02:07:12;14.30;69.70
70801;DHT22;59616;52.170;5.386;2022-07-17T02:09:39;14.40;69.80
70801;DHT22;59616;52.170;5.386;2022-07-17T02:12:06;14.40;69.80
70801;DHT22;59616;52.170;5.386;2022-07-17T02:14:34;14.40;69.70
70801;DHT22;59616;52.170;5.386;2022-07-17T02:17:01;14.30;69.80
70801;DHT22;59616;52.170;5.386;2022-07-17T02:19:28;14.40;69.80
70801;DHT22;59616;52.170;5.386;2022-07-17T02:21:55;14.40;69.70
70801;DHT22;59616;52.170;5.386;2022-07-17T02:24:22;14.30;69.60
70801;DHT22;59616;52.170;5.386;2022-07-17T02:26:49;14.40;69.70
70801;DHT22;59616;52.170;5.386;2022-07-17T02:29:15;14.30;69.80
70801;DHT22;59616;52.170;5.386;2022-07-17T02:31:42;14.30;69.90
70801;DHT22;59616;52.170;5.386;2022-07-17T02:34:09;14.20;69.90
70801;DHT22;59616;52.170;5.386;2022-07-17T02:36:37;14.20;70.00
70801;DHT22;59616;52.170;5.386;2022-07-17T02:39:04;14.10;70.10
70801;DHT22;59616;52.170;5.386;2022-07-17T02:41:31;14.10;70.20
70801;DHT22;59616;52.170;5.386;2022-07-17T02:44:00;14.10;70.20
70801;DHT22;59616;52.170;5.386;2022-07-17T02:46:27;14.10;70.10
70801;DHT22;59616;52.170;5.386;2022-07-17T02:48:54;14.10;70.10
70801;DHT22;59616;52.170;5.386;2022-07-17T02:51:21;14.10;70.30
70801;DHT22;59616;52.170;5.386;2022-07-17T02:53:48;14.10;70.30
70801;DHT22;59616;52.170;5.386;2022-07-17T02:56:14;14.10;70.30
70801;DHT22;59616;52.170;5.386;2022-07-17T02:58:41;14.00;70.40
70801;DHT22;59616;52.170;5.386;2022-07-17T03:01:08;14.00;70.30
70801;DHT22;59616;52.170;5.386;2022-07-17T03:03:35;14.00;70.50
70801;DHT22;59616;52.170;5.386;2022-07-17T03:06:01;13.90;70.40
70801;DHT22;59616;52.170;5.386;2022-07-17T03:08:28;13.90;70.60
70801;DHT22;59616;52.170;5.386;2022-07-17T03:10:55;13.90;70.60
70801;DHT22;59616;52.170;5.386;2022-07-17T03:13:21;13.80;70.50
70801;DHT22;59616;52.170;5.386;2022-07-17T03:15:48;13.80;70.60
70801;DHT22;59616;52.170;5.386;2022-07-17T03:18:15;13.90;70.40
70801;DHT22;59616;52.170;5.386;2022-07-17T03:20:42;13.90;70.40
70801;DHT22;59616;52.170;5.386;2022-07-17T03:23:08;13.90;70.30
70801;DHT22;59616;52.170;5.386;2022-07-17T03:25:36;13.80;70.40
70801;DHT22;59616;52.170;5.386;2022-07-17T03:28:03;13.80;70.50
70801;DHT22;59616;52.170;5.386;2022-07-17T03:30:29;13.70;70.70
70801;DHT22;59616;52.170;5.386;2022-07-17T03:32:56;13.70;70.80
70801;DHT22;59616;52.170;5.386;2022-07-17T03:35:23;13.70;70.80
70801;DHT22;59616;52.170;5.386;2022-07-17T03:37:50;13.80;70.80
70801;DHT22;59616;52.170;5.386;2022-07-17T03:40:16;13.80;70.90
70801;DHT22;59616;52.170;5.386;2022-07-17T03:42:43;13.70;70.70
70801;DHT22;59616;52.170;5.386;2022-07-17T03:45:12;13.70;70.90
70801;DHT22;59616;52.170;5.386;2022-07-17T03:47:38;13.80;71.00
70801;DHT22;59616;52.170;5.386;2022-07-17T03:50:05;13.80;70.90
70801;DHT22;59616;52.170;5.386;2022-07-17T03:52:33;13.80;70.80
70801;DHT22;59616;52.170;5.386;2022-07-17T03:54:59;13.80;70.70
70801;DHT22;59616;52.170;5.386;2022-07-17T03:57:26;13.80;71.00
70801;DHT22;59616;52.170;5.386;2022-07-17T03:59:53;13.80;71.10
70801;DHT22;59616;52.170;5.386;2022-07-17T04:02:20;13.80;71.10
70801;DHT22;59616;52.170;5.386;2022-07-17T04:04:47;13.80;71.90
70801;DHT22;59616;52.170;5.386;2022-07-17T04:07:13;13.80;71.00
70801;DHT22;59616;52.170;5.386;2022-07-17T04:09:58;13.80;70.90
70801;DHT22;59616;52.170;5.386;2022-07-17T04:12:26;13.90;70.90
70801;DHT22;59616;52.170;5.386;2022-07-17T04:14:53;13.90;70.80
70801;DHT22;59616;52.170;5.386;2022-07-17T04:17:20;13.90;70.90
70801;DHT22;59616;52.170;5.386;2022-07-17T04:19:47;13.80;71.00
70801;DHT22;59616;52.170;5.386;2022-07-17T04:22:14;13.80;70.90
70801;DHT22;59616;52.170;5.386;2022-07-17T04:24:41;13.80;70.90
70801;DHT22;59616;52.170;5.386;2022-07-17T04:27:08;13.80;71.90
70801;DHT22;59616;52.170;5.386;2022-07-17T04:29:35;13.80;71.10
70801;DHT22;59616;52.170;5.386;2022-07-17T04:32:03;13.80;71.10
70801;DHT22;59616;52.170;5.386;2022-07-17T04:34:30;13.80;71.10
70801;DHT22;59616;52.170;5.386;2022-07-17T04:37:00;13.90;71.00
70801;DHT22;59616;52.170;5.386;2022-07-17T04:39:27;13.80;71.10
70801;DHT22;59616;52.170;5.386;2022-07-17T04:41:54;13.80;71.10
70801;DHT22;59616;52.170;5.386;2022-07-17T04:44:21;13.80;71.20
70801;DHT22;59616;52.170;5.386;2022-07-17T04:46:47;13.80;71.10
70801;DHT22;59616;52.170;5.386;2022-07-17T04:49:14;13.80;71.20
70801;DHT22;59616;52.170;5.386;2022-07-17T04:51:41;13.80;71.10
70801;DHT22;59616;52.170;5.386;2022-07-17T04:54:08;13.80;71.20
70801;DHT22;59616;52.170;5.386;2022-07-17T04:56:35;13.80;71.30
70801;DHT22;59616;52.170;5.386;2022-07-17T04:59:01;13.90;71.20
70801;DHT22;59616;52.170;5.386;2022-07-17T05:01:28;13.90;71.10
70801;DHT22;59616;52.170;5.386;2022-07-17T05:03:56;13.90;71.10
70801;DHT22;59616;52.170;5.386;2022-07-17T05:06:23;13.90;71.10
70801;DHT22;59616;52.170;5.386;2022-07-17T05:08:49;13.80;71.10
70801;DHT22;59616;52.170;5.386;2022-07-17T05:11:16;13.80;71.30
70801;DHT22;59616;52.170;5.386;2022-07-17T05:13:43;13.80;71.20
70801;DHT22;59616;52.170;5.386;2022-07-17T05:16:09;13.80;71.20
70801;DHT22;59616;52.170;5.386;2022-07-17T05:18:37;13.80;71.20
70801;DHT22;59616;52.170;5.386;2022-07-17T05:21:03;13.80;71.30
70801;DHT22;59616;52.170;5.386;2022-07-17T05:23:30;13.80;71.30
70801;DHT22;59616;52.170;5.386;2022-07-17T05:25:57;13.90;71.30
70801;DHT22;59616;52.170;5.386;2022-07-17T05:28:24;14.10;71.20
70801;DHT22;59616;52.170;5.386;2022-07-17T05:30:50;14.20;71.00
70801;DHT22;59616;52.170;5.386;2022-07-17T05:33:17;14.20;70.80
70801;DHT22;59616;52.170;5.386;2022-07-17T05:35:44;14.30;70.70
70801;DHT22;59616;52.170;5.386;2022-07-17T05:38:11;14.50;70.80
70801;DHT22;59616;52.170;5.386;2022-07-17T05:40:38;14.50;70.50
70801;DHT22;59616;52.170;5.386;2022-07-17T05:43:05;14.60;70.30
70801;DHT22;59616;52.170;5.386;2022-07-17T05:45:31;14.70;70.30
70801;DHT22;59616;52.170;5.386;2022-07-17T05:47:58;14.70;70.30
70801;DHT22;59616;52.170;5.386;2022-07-17T05:50:25;14.70;70.30
70801;DHT22;59616;52.170;5.386;2022-07-17T05:52:52;14.80;70.30
70801;DHT22;59616;52.170;5.386;2022-07-17T05:55:19;14.80;70.00
70801;DHT22;59616;52.170;5.386;2022-07-17T05:57:46;14.90;70.20
70801;DHT22;59616;52.170;5.386;2022-07-17T06:00:13;15.00;69.90
70801;DHT22;59616;52.170;5.386;2022-07-17T06:02:40;15.00;70.00
70801;DHT22;59616;52.170;5.386;2022-07-17T06:05:08;15.10;69.80
70801;DHT22;59616;52.170;5.386;2022-07-17T06:07:35;15.10;69.80
70801;DHT22;59616;52.170;5.386;2022-07-17T06:10:03;15.20;69.70
70801;DHT22;59616;52.170;5.386;2022-07-17T06:12:29;15.30;69.70
70801;DHT22;59616;52.170;5.386;2022-07-17T06:14:56;15.40;69.60
70801;DHT22;59616;52.170;5.386;2022-07-17T06:17:23;15.40;69.50
70801;DHT22;59616;52.170;5.386;2022-07-17T06:19:50;15.50;69.40
70801;DHT22;59616;52.170;5.386;2022-07-17T06:22:19;15.50;69.10
70801;DHT22;59616;52.170;5.386;2022-07-17T06:24:46;15.60;69.30
70801;DHT22;59616;52.170;5.386;2022-07-17T06:27:13;15.60;69.10
70801;DHT22;59616;52.170;5.386;2022-07-17T06:29:40;15.70;68.90
70801;DHT22;59616;52.170;5.386;2022-07-17T06:32:17;15.80;68.70
70801;DHT22;59616;52.170;5.386;2022-07-17T06:34:43;15.80;68.30
70801;DHT22;59616;52.170;5.386;2022-07-17T06:37:10;15.80;68.00
70801;DHT22;59616;52.170;5.386;2022-07-17T06:39:37;15.90;67.90
70801;DHT22;59616;52.170;5.386;2022-07-17T06:42:04;15.90;67.70
70801;DHT22;59616;52.170;5.386;2022-07-17T06:44:31;16.00;67.40
70801;DHT22;59616;52.170;5.386;2022-07-17T06:46:58;16.00;67.00
70801;DHT22;59616;52.170;5.386;2022-07-17T06:49:24;16.10;66.50
70801;DHT22;59616;52.170;5.386;2022-07-17T06:51:51;16.20;66.10
70801;DHT22;59616;52.170;5.386;2022-07-17T06:54:18;16.30;65.80
70801;DHT22;59616;52.170;5.386;2022-07-17T06:56:45;16.30;66.30
70801;DHT22;59616;52.170;5.386;2022-07-17T06:59:11;16.40;65.50
70801;DHT22;59616;52.170;5.386;2022-07-17T07:01:38;16.40;65.40
70801;DHT22;59616;52.170;5.386;2022-07-17T07:04:07;16.50;65.50
70801;DHT22;59616;52.170;5.386;2022-07-17T07:06:34;16.60;65.50
70801;DHT22;59616;52.170;5.386;2022-07-17T07:09:01;16.60;65.10
70801;DHT22;59616;52.170;5.386;2022-07-17T07:11:28;16.70;64.20
70801;DHT22;59616;52.170;5.386;2022-07-17T07:13:55;16.70;64.30
70801;DHT22;59616;52.170;5.386;2022-07-17T07:16:22;16.80;64.10
70801;DHT22;59616;52.170;5.386;2022-07-17T07:18:49;16.90;64.20
70801;DHT22;59616;52.170;5.386;2022-07-17T07:21:15;17.00;64.10
70801;DHT22;59616;52.170;5.386;2022-07-17T07:23:45;17.10;64.00
70801;DHT22;59616;52.170;5.386;2022-07-17T07:26:12;17.30;63.60
70801;DHT22;59616;52.170;5.386;2022-07-17T07:28:38;17.40;63.20
70801;DHT22;59616;52.170;5.386;2022-07-17T07:31:05;17.60;63.00
70801;DHT22;59616;52.170;5.386;2022-07-17T07:33:32;17.70;62.80
70801;DHT22;59616;52.170;5.386;2022-07-17T07:35:59;17.80;62.40
70801;DHT22;59616;52.170;5.386;2022-07-17T07:38:26;18.00;61.90
70801;DHT22;59616;52.170;5.386;2022-07-17T07:40:52;18.10;61.70
70801;DHT22;59616;52.170;5.386;2022-07-17T07:43:19;18.20;61.70
70801;DHT22;59616;52.170;5.386;2022-07-17T07:45:46;18.50;61.60
70801;DHT22;59616;52.170;5.386;2022-07-17T07:48:13;18.70;61.30
70801;DHT22;59616;52.170;5.386;2022-07-17T07:50:40;18.90;60.80
70801;DHT22;59616;52.170;5.386;2022-07-17T07:53:07;19.00;60.30
70801;DHT22;59616;52.170;5.386;2022-07-17T07:55:33;19.20;59.80
70801;DHT22;59616;52.170;5.386;2022-07-17T07:58:06;19.30;59.70
70801;DHT22;59616;52.170;5.386;2022-07-17T08:00:34;19.50;59.10
70801;DHT22;59616;52.170;5.386;2022-07-17T08:03:01;19.80;60.00
70801;DHT22;59616;52.170;5.386;2022-07-17T08:05:30;20.00;58.30
70801;DHT22;59616;52.170;5.386;2022-07-17T08:07:57;20.30;57.80
70801;DHT22;59616;52.170;5.386;2022-07-17T08:10:24;20.60;58.00
70801;DHT22;59616;52.170;5.386;2022-07-17T08:12:51;20.70;56.80
70801;DHT22;59616;52.170;5.386;2022-07-17T08:15:19;21.00;56.40
70801;DHT22;59616;52.170;5.386;2022-07-17T08:17:48;21.20;55.50
70801;DHT22;59616;52.170;5.386;2022-07-17T08:20:16;21.40;54.90
70801;DHT22;59616;52.170;5.386;2022-07-17T08:22:44;21.60;54.30
70801;DHT22;59616;52.170;5.386;2022-07-17T08:25:32;21.70;54.00
70801;DHT22;59616;52.170;5.386;2022-07-17T08:28:00;21.80;53.20
70801;DHT22;59616;52.170;5.386;2022-07-17T08:30:27;22.00;53.10
70801;DHT22;59616;52.170;5.386;2022-07-17T08:32:54;22.20;52.50
70801;DHT22;59616;52.170;5.386;2022-07-17T08:35:21;22.30;52.30
70801;DHT22;59616;52.170;5.386;2022-07-17T08:37:51;22.50;52.00
70801;DHT22;59616;52.170;5.386;2022-07-17T08:40:21;22.60;51.50
70801;DHT22;59616;52.170;5.386;2022-07-17T08:42:49;22.80;51.20
70801;DHT22;59616;52.170;5.386;2022-07-17T08:45:16;22.90;50.90
70801;DHT22;59616;52.170;5.386;2022-07-17T08:47:43;23.00;51.50
70801;DHT22;59616;52.170;5.386;2022-07-17T08:50:11;23.00;50.00
70801;DHT22;59616;52.170;5.386;2022-07-17T08:52:39;23.00;51.30
70801;DHT22;59616;52.170;5.386;2022-07-17T08:55:11;23.10;50.30
70801;DHT22;59616;52.170;5.386;2022-07-17T08:57:41;23.30;50.50
70801;DHT22;59616;52.170;5.386;2022-07-17T09:00:17;23.40;50.10
70801;DHT22;59616;52.170;5.386;2022-07-17T09:05:29;23.50;49.10
70801;DHT22;59616;52.170;5.386;2022-07-17T09:07:56;23.70;48.90
70801;DHT22;59616;52.170;5.386;2022-07-17T09:13:24;23.60;48.00
70801;DHT22;59616;52.170;5.386;2022-07-17T09:16:06;23.50;47.90
70801;DHT22;59616;52.170;5.386;2022-07-17T09:18:51;23.40;48.40
70801;DHT22;59616;52.170;5.386;2022-07-17T09:21:25;23.60;48.40
70801;DHT22;59616;52.170;5.386;2022-07-17T09:24:04;23.80;48.00
70801;DHT22;59616;52.170;5.386;2022-07-17T09:26:42;23.80;47.80
70801;DHT22;59616;52.170;5.386;2022-07-17T09:29:09;23.80;47.50
70801;DHT22;59616;52.170;5.386;2022-07-17T09:31:38;23.70;47.70
70801;DHT22;59616;52.170;5.386;2022-07-17T09:34:05;23.80;48.00
70801;DHT22;59616;52.170;5.386;2022-07-17T09:36:42;23.70;48.10
70801;DHT22;59616;52.170;5.386;2022-07-17T09:39:09;23.70;48.10
70801;DHT22;59616;52.170;5.386;2022-07-17T09:41:36;23.80;48.00
70801;DHT22;59616;52.170;5.386;2022-07-17T09:44:03;23.80;47.70
70801;DHT22;59616;52.170;5.386;2022-07-17T09:46:34;23.90;47.80
70801;DHT22;59616;52.170;5.386;2022-07-17T09:49:05;24.10;47.40
70801;DHT22;59616;52.170;5.386;2022-07-17T09:51:35;24.20;47.40
70801;DHT22;59616;52.170;5.386;2022-07-17T09:54:06;24.30;47.00
70801;DHT22;59616;52.170;5.386;2022-07-17T09:56:35;24.20;47.10
70801;DHT22;59616;52.170;5.386;2022-07-17T09:59:09;24.40;47.40
70801;DHT22;59616;52.170;5.386;2022-07-17T10:01:39;24.40;46.70
70801;DHT22;59616;52.170;5.386;2022-07-17T10:04:08;24.40;46.70
70801;DHT22;59616;52.170;5.386;2022-07-17T10:06:37;24.40;47.00
70801;DHT22;59616;52.170;5.386;2022-07-17T10:09:04;24.50;46.80
70801;DHT22;59616;52.170;5.386;2022-07-17T10:11:35;24.60;46.70
70801;DHT22;59616;52.170;5.386;2022-07-17T10:14:14;24.60;46.70
70801;DHT22;59616;52.170;5.386;2022-07-17T10:16:41;24.60;46.40
70801;DHT22;59616;52.170;5.386;2022-07-17T10:19:22;24.60;46.20
70801;DHT22;59616;52.170;5.386;2022-07-17T10:22:02;24.50;46.20
70801;DHT22;59616;52.170;5.386;2022-07-17T10:24:31;24.40;46.00
70801;DHT22;59616;52.170;5.386;2022-07-17T10:26:58;24.40;46.10
70801;DHT22;59616;52.170;5.386;2022-07-17T10:31:53;24.50;46.00
70801;DHT22;59616;52.170;5.386;2022-07-17T10:35:01;24.50;45.50
70801;DHT22;59616;52.170;5.386;2022-07-17T10:37:32;24.60;45.80
70801;DHT22;59616;52.170;5.386;2022-07-17T10:40:06;24.60;46.60
70801;DHT22;59616;52.170;5.386;2022-07-17T10:43:04;24.60;45.40
70801;DHT22;59616;52.170;5.386;2022-07-17T10:45:36;24.60;46.40
70801;DHT22;59616;52.170;5.386;2022-07-17T10:48:10;24.70;45.40
70801;DHT22;59616;52.170;5.386;2022-07-17T10:50:46;24.70;45.00
70801;DHT22;59616;52.170;5.386;2022-07-17T10:56:05;24.80;44.50
70801;DHT22;59616;52.170;5.386;2022-07-17T10:58:38;24.90;43.80
70801;DHT22;59616;52.170;5.386;2022-07-17T11:01:14;25.00;43.60
70801;DHT22;59616;52.170;5.386;2022-07-17T11:03:44;25.10;43.80
70801;DHT22;59616;52.170;5.386;2022-07-17T11:08:50;25.20;43.50
70801;DHT22;59616;52.170;5.386;2022-07-17T11:11:20;25.00;43.40
70801;DHT22;59616;52.170;5.386;2022-07-17T11:14:14;25.10;43.80
70801;DHT22;59616;52.170;5.386;2022-07-17T11:17:00;25.20;44.40
70801;DHT22;59616;52.170;5.386;2022-07-17T11:19:37;25.30;44.00
70801;DHT22;59616;52.170;5.386;2022-07-17T11:22:12;25.30;44.00
70801;DHT22;59616;52.170;5.386;2022-07-17T11:27:29;25.40;44.40
70801;DHT22;59616;52.170;5.386;2022-07-17T11:29:58;25.40;44.50
70801;DHT22;59616;52.170;5.386;2022-07-17T11:32:35;25.60;44.70
70801;DHT22;59616;52.170;5.386;2022-07-17T11:35:13;25.70;44.50
70801;DHT22;59616;52.170;5.386;2022-07-17T11:38:00;25.70;43.80
70801;DHT22;59616;52.170;5.386;2022-07-17T11:40:27;25.70;43.70
70801;DHT22;59616;52.170;5.386;2022-07-17T11:43:01;25.70;43.50
70801;DHT22;59616;52.170;5.386;2022-07-17T11:45:31;25.60;43.20
70801;DHT22;59616;52.170;5.386;2022-07-17T11:48:04;25.60;43.10
70801;DHT22;59616;52.170;5.386;2022-07-17T11:50:31;25.70;42.90
70801;DHT22;59616;52.170;5.386;2022-07-17T11:53:03;25.80;42.60
70801;DHT22;59616;52.170;5.386;2022-07-17T11:55:38;25.80;42.10
70801;DHT22;59616;52.170;5.386;2022-07-17T11:58:05;25.80;41.70
70801;DHT22;59616;52.170;5.386;2022-07-17T12:00:32;25.80;41.90
70801;DHT22;59616;52.170;5.386;2022-07-17T12:03:05;25.90;42.50
70801;DHT22;59616;52.170;5.386;2022-07-17T12:05:34;25.90;42.00
70801;DHT22;59616;52.170;5.386;2022-07-17T12:08:02;25.90;41.50
70801;DHT22;59616;52.170;5.386;2022-07-17T12:10:30;25.90;41.50
70801;DHT22;59616;52.170;5.386;2022-07-17T12:13:02;26.00;41.50
70801;DHT22;59616;52.170;5.386;2022-07-17T12:15:44;26.10;40.90
70801;DHT22;59616;52.170;5.386;2022-07-17T12:18:25;26.20;40.70
70801;DHT22;59616;52.170;5.386;2022-07-17T12:20:58;26.20;40.60
70801;DHT22;59616;52.170;5.386;2022-07-17T12:23:44;26.10;40.00
70801;DHT22;59616;52.170;5.386;2022-07-17T12:26:15;26.00;40.20
70801;DHT22;59616;52.170;5.386;2022-07-17T12:28:45;26.00;40.10
70801;DHT22;59616;52.170;5.386;2022-07-17T12:31:12;26.20;40.20
70801;DHT22;59616;52.170;5.386;2022-07-17T12:33:41;26.40;39.70
70801;DHT22;59616;52.170;5.386;2022-07-17T12:36:08;26.30;39.30
70801;DHT22;59616;52.170;5.386;2022-07-17T12:38:35;26.30;39.70
70801;DHT22;59616;52.170;5.386;2022-07-17T12:41:02;26.30;40.00
70801;DHT22;59616;52.170;5.386;2022-07-17T12:43:29;26.40;39.90
70801;DHT22;59616;52.170;5.386;2022-07-17T12:45:56;26.60;39.20
70801;DHT22;59616;52.170;5.386;2022-07-17T12:48:32;26.70;38.80
70801;DHT22;59616;52.170;5.386;2022-07-17T12:50:59;26.80;39.20
70801;DHT22;59616;52.170;5.386;2022-07-17T12:53:25;26.80;38.90
70801;DHT22;59616;52.170;5.386;2022-07-17T12:55:52;27.00;38.70
70801;DHT22;59616;52.170;5.386;2022-07-17T12:58:19;27.10;38.60
70801;DHT22;59616;52.170;5.386;2022-07-17T13:00:45;27.10;38.00
70801;DHT22;59616;52.170;5.386;2022-07-17T13:03:12;27.10;38.90
70801;DHT22;59616;52.170;5.386;2022-07-17T13:05:39;27.00;37.60
70801;DHT22;59616;52.170;5.386;2022-07-17T13:08:06;26.80;38.00
70801;DHT22;59616;52.170;5.386;2022-07-17T13:10:36;26.80;37.80
70801;DHT22;59616;52.170;5.386;2022-07-17T13:13:03;26.70;37.20
70801;DHT22;59616;52.170;5.386;2022-07-17T13:15:31;26.60;37.20
70801;DHT22;59616;52.170;5.386;2022-07-17T13:17:57;26.70;37.10
70801;DHT22;59616;52.170;5.386;2022-07-17T13:20:24;26.70;37.10
70801;DHT22;59616;52.170;5.386;2022-07-17T13:22:51;26.80;37.00
70801;DHT22;59616;52.170;5.386;2022-07-17T13:25:18;26.80;38.30
70801;DHT22;59616;52.170;5.386;2022-07-17T13:27:45;26.90;37.80
70801;DHT22;59616;52.170;5.386;2022-07-17T13:30:11;26.90;37.10
70801;DHT22;59616;52.170;5.386;2022-07-17T13:32:38;26.90;36.90
70801;DHT22;59616;52.170;5.386;2022-07-17T13:35:05;27.00;37.10
70801;DHT22;59616;52.170;5.386;2022-07-17T13:37:35;27.10;36.60
70801;DHT22;59616;52.170;5.386;2022-07-17T13:40:05;27.00;36.70
70801;DHT22;59616;52.170;5.386;2022-07-17T13:42:32;27.10;37.00
70801;DHT22;59616;52.170;5.386;2022-07-17T13:44:59;27.10;36.90
70801;DHT22;59616;52.170;5.386;2022-07-17T13:47:26;27.10;36.70
70801;DHT22;59616;52.170;5.386;2022-07-17T13:49:53;27.20;37.00
70801;DHT22;59616;52.170;5.386;2022-07-17T13:52:20;27.10;37.40
70801;DHT22;59616;52.170;5.386;2022-07-17T13:54:46;27.10;37.50
70801;DHT22;59616;52.170;5.386;2022-07-17T13:57:13;27.10;37.50
70801;DHT22;59616;52.170;5.386;2022-07-17T13:59:40;27.20;37.40
70801;DHT22;59616;52.170;5.386;2022-07-17T14:02:07;27.20;37.20
70801;DHT22;59616;52.170;5.386;2022-07-17T14:04:34;27.30;37.00
70801;DHT22;59616;52.170;5.386;2022-07-17T14:07:01;27.30;37.00
70801;DHT22;59616;52.170;5.386;2022-07-17T14:09:28;27.30;36.70
70801;DHT22;59616;52.170;5.386;2022-07-17T14:11:54;27.20;37.20
70801;DHT22;59616;52.170;5.386;2022-07-17T14:14:21;27.10;37.20
70801;DHT22;59616;52.170;5.386;2022-07-17T14:16:48;27.10;37.40
70801;DHT22;59616;52.170;5.386;2022-07-17T14:19:15;27.20;37.50
70801;DHT22;59616;52.170;5.386;2022-07-17T14:21:42;27.20;37.90
70801;DHT22;59616;52.170;5.386;2022-07-17T14:24:09;27.20;37.20
70801;DHT22;59616;52.170;5.386;2022-07-17T14:26:37;27.20;36.90
70801;DHT22;59616;52.170;5.386;2022-07-17T14:29:04;27.30;37.00
70801;DHT22;59616;52.170;5.386;2022-07-17T14:31:32;27.30;38.10
70801;DHT22;59616;52.170;5.386;2022-07-17T14:34:09;27.30;37.00
70801;DHT22;59616;52.170;5.386;2022-07-17T14:36:35;27.20;37.00
70801;DHT22;59616;52.170;5.386;2022-07-17T14:39:03;27.10;37.20
70801;DHT22;59616;52.170;5.386;2022-07-17T14:41:30;27.10;37.00
70801;DHT22;59616;52.170;5.386;2022-07-17T14:43:57;27.20;37.30
70801;DHT22;59616;52.170;5.386;2022-07-17T14:46:24;27.20;37.00
70801;DHT22;59616;52.170;5.386;2022-07-17T14:48:51;27.30;38.90
70801;DHT22;59616;52.170;5.386;2022-07-17T14:51:18;27.30;37.60
70801;DHT22;59616;52.170;5.386;2022-07-17T14:53:45;27.30;37.90
70801;DHT22;59616;52.170;5.386;2022-07-17T14:56:12;27.30;38.00
70801;DHT22;59616;52.170;5.386;2022-07-17T14:58:39;27.20;37.90
70801;DHT22;59616;52.170;5.386;2022-07-17T15:01:06;27.10;37.00
70801;DHT22;59616;52.170;5.386;2022-07-17T15:03:34;27.10;37.40
70801;DHT22;59616;52.170;5.386;2022-07-17T15:06:00;27.00;36.80
70801;DHT22;59616;52.170;5.386;2022-07-17T15:08:27;26.90;37.00
70801;DHT22;59616;52.170;5.386;2022-07-17T15:10:54;26.90;38.00
70801;DHT22;59616;52.170;5.386;2022-07-17T15:13:21;26.90;37.50
70801;DHT22;59616;52.170;5.386;2022-07-17T15:15:48;27.00;36.80
70801;DHT22;59616;52.170;5.386;2022-07-17T15:18:15;27.10;36.60
70801;DHT22;59616;52.170;5.386;2022-07-17T15:20:42;27.10;36.60
70801;DHT22;59616;52.170;5.386;2022-07-17T15:23:09;27.10;36.50
70801;DHT22;59616;52.170;5.386;2022-07-17T15:25:36;27.10;38.20
70801;DHT22;59616;52.170;5.386;2022-07-17T15:28:03;27.00;38.10
70801;DHT22;59616;52.170;5.386;2022-07-17T15:30:30;26.90;38.30
70801;DHT22;59616;52.170;5.386;2022-07-17T15:32:57;26.90;38.60
70801;DHT22;59616;52.170;5.386;2022-07-17T15:35:24;26.80;38.00
70801;DHT22;59616;52.170;5.386;2022-07-17T15:37:53;26.70;37.80
70801;DHT22;59616;52.170;5.386;2022-07-17T15:40:21;26.60;37.80
70801;DHT22;59616;52.170;5.386;2022-07-17T15:42:49;26.60;38.60
70801;DHT22;59616;52.170;5.386;2022-07-17T15:45:17;26.60;39.10
70801;DHT22;59616;52.170;5.386;2022-07-17T15:47:48;26.50;38.70
70801;DHT22;59616;52.170;5.386;2022-07-17T15:50:15;26.60;39.00
70801;DHT22;59616;52.170;5.386;2022-07-17T15:52:42;26.60;38.40
70801;DHT22;59616;52.170;5.386;2022-07-17T15:55:09;26.60;38.20